Flight Track Log - Related Links

Times and Time Zones

All times are in EST time to prevent confusion due to time zone crossing. See the EJA929 flight status page for this flight to view local times or setup timezone preferences in your user account.


Time Position Orientation Groundspeed Altitude Reporting Facility
EST Latitude Longitude Course Direction KTS MPH feet Rate Location/Type
Sat 08:22:11 AM 35.8583 -78.8083 200° South 187 215 1,000  Level Washington Center
Sat 08:22:35 AM 35.8372 -78.8178 200° South 191 220 2,600 3,671 Climbing Washington Center
Sat 08:23:36 AM 35.7803 -78.8383 196° South 211 243 6,200 3,343 Climbing Washington Center
Sat 08:23:45 AM 35.7719 -78.8381 178° South 240 276 6,500 3,343 Climbing Washington Center
Sat 08:24:46 AM 35.7039 -78.8097 161° South 240 276 10,100 2,727 Climbing Washington Center
Sat 08:25:46 AM 35.6256 -78.7683 157° South 269 310 12,000 1,835 Climbing Washington Center
Sat 08:26:47 AM 35.5331 -78.7186 156° South 365 420 13,800 2,319 Climbing Washington Center
Sat 08:27:45 AM 35.4169 -78.6939 170° South 394 453 16,600 2,118 Climbing Washington Center
Sat 08:28:46 AM 35.3192 -78.6797 173° South 400 460 18,000 1,377 Climbing Washington Center
Sat 08:29:47 AM 35.2131 -78.6656 174° South 395 455 19,400 1,462 Climbing Washington Center
Sat 08:30:45 AM 35.1072 -78.6489 173° South 395 455 20,900 1,513 Climbing Washington Center
Sat 08:31:46 AM 34.9989 -78.6347 174° South 395 455 22,400 1,537 Climbing Washington Center
Sat 08:32:46 AM 34.8939 -78.5825 158° South 395 455 24,000 1,587 Climbing Washington Center
Sat 08:33:47 AM 34.7875 -78.4953 146° Southeast 395 455 25,600 1,613 Climbing Washington Center
Sat 08:34:45 AM 34.6872 -78.4133 146° Southeast 432 497 27,200 1,475 Climbing Washington Center
Sat 08:35:45 AM 34.5950 -78.3469 149° Southeast 432 497 28,500 1,339 Climbing Washington Center
Sat 08:36:46 AM 34.4925 -78.2681 148° Southeast 432 497 29,900 1,450 Climbing Washington Center
Sat 08:37:45 AM 34.3744 -78.2314 166° South 426 490 31,400 1,488 Climbing Washington Center
Sat 08:38:47 AM 34.2558 -78.2100 172° South 426 490 32,900 982 Climbing Washington Center
Sat 08:40:30 AM 34.0317 -78.1667 171° South 465 535 34,100 847 Climbing Jacksonville Center
Sat 08:41:30 AM 33.8969 -78.1364 169° South 487 560 35,200 942 Climbing Jacksonville Center
Sat 08:42:31 AM 33.7603 -78.1064 170° South 492 566 36,000 397 Climbing Jacksonville Center
Sat 08:43:31 AM 33.6194 -78.0792 171° South 503 579 36,000 151 Level Jacksonville Center
Sat 08:44:30 AM 33.4775 -78.0247 162° South 518 596 36,300 650 Climbing Jacksonville Center
Sat 08:45:31 AM 33.3414 -77.9550 157° South 531 611 37,300 1,000 Climbing Jacksonville Center
Sat 08:46:30 AM 33.2072 -77.8881 157° South 531 611 38,300 1,000 Climbing Jacksonville Center
Sat 08:47:31 AM 33.0750 -77.8186 156° South 525 604 39,300 1,000 Climbing Jacksonville Center
Sat 08:48:30 AM 32.9408 -77.7544 158° South 520 598 40,300 550 Climbing Jacksonville Center
Sat 08:49:31 AM 32.8092 -77.6928 159° South 515 593 40,400 -100 Climbing Jacksonville Center
Sat 08:50:30 AM 32.6750 -77.6289 158° South 515 593 40,100 -202 Descending Jacksonville Center
Sat 08:51:30 AM 32.5386 -77.5628 158° South 522 601 40,000 -50 Descending Jacksonville Center
Sat 08:52:30 AM 32.4000 -77.4972 158° South 522 601 40,000  Level Jacksonville Center
Sat 08:53:31 AM 32.2656 -77.4267 156° South 522 601 40,000  Level Jacksonville Center
Sat 08:54:31 AM 32.1272 -77.3661 160° South 527 606 40,000  Level Jacksonville Center
Sat 08:55:31 AM 31.9906 -77.2961 157° South 527 606 40,000  Level Jacksonville Center
Sat 08:56:30 AM 31.8522 -77.2311 158° South 534 615 40,000  Level Jacksonville Center
Sat 08:57:31 AM 31.7136 -77.1686 159° South 534 615 40,000  Level Jacksonville Center
Sat 09:00:47 AM 31.3500 -77.0000 140° Southeast 531 611 40,000  Level New York Oceanic (ODAPS)
Sat 09:27:26 AM 28.2500 -74.1167 149° Southeast 519 597 40,000 Level New York Oceanic (ODAPS)
Sat 09:53:47 AM 24.7258 -71.9547 172° South 550 633 40,400  Climbing Miami Center
Sat 09:54:00 AM 24.7000 -71.9553 172° South 519 597 40,000 590 Descending FlightAware Transoceanic
Sat 09:54:48 AM 24.6019 -71.8706 148° Southeast 545 627 41,000  Climbing Miami Center
Sat 09:55:00 AM 24.5500 -71.9331 172° South 519 597 40,000  Descending FlightAware Transoceanic
Sat 09:55:47 AM 24.4936 -71.7517 135° Southeast 532 612 41,000  Climbing Miami Center
Sat 09:56:00 AM 24.4000 -71.9109 172° South 519 597 40,000  Descending FlightAware Transoceanic
Sat 09:56:47 AM 24.3833 -71.6492 140° Southeast 532 612 41,000  Climbing Miami Center
Sat 09:57:00 AM 24.2500 -71.8888 172° South 519 597 40,000  Descending FlightAware Transoceanic
Sat 09:57:47 AM 24.2728 -71.5331 136° Southeast 532 612 41,000 561 Climbing Miami Center
Sat 09:58:47 AM 24.1642 -71.4172 136° Southeast 537 618 41,000  Level Miami Center
Sat 09:59:47 AM 24.0539 -71.3106 139° Southeast 537 618 41,000  Level Miami Center
Sat 10:00:47 AM 23.9433 -71.2064 139° Southeast 537 618 41,000  Level Miami Center
Sat 10:01:47 AM 23.8342 -71.0797 133° Southeast 543 625 41,000  Level Miami Center
Sat 10:02:47 AM 23.7233 -70.9669 137° Southeast 536 617 41,000  Level Miami Center
Sat 10:03:47 AM 23.6150 -70.8656 139° Southeast 531 611 41,000  Level Miami Center
Sat 10:04:47 AM 23.5039 -70.7508 137° Southeast 536 617 41,000  Level Miami Center
Sat 10:05:47 AM 23.3928 -70.6386 137° Southeast 536 617 41,000  Level Miami Center
Sat 10:06:47 AM 23.2817 -70.5264 137° Southeast 536 617 41,000  Level Miami Center
Sat 10:07:47 AM 23.1708 -70.4192 138° Southeast 537 618 41,000  Level Miami Center
Sat 10:08:48 AM 23.0508 -70.2967 137° Southeast 537 618 41,000  Level Miami Center
Sat 10:09:47 AM 22.9394 -70.1875 138° Southeast 542 624 41,000  Level Miami Center
Sat 10:10:47 AM 22.8258 -70.0742 137° Southeast 542 624 41,000  Level Miami Center
Sat 10:11:47 AM 22.7167 -69.9650 137° Southeast 542 624 41,000  Level Miami Center
Sat 10:12:47 AM 22.6033 -69.8544 138° Southeast 542 624 41,000  Level Miami Center
Sat 10:13:47 AM 22.4894 -69.7417 138° Southeast 542 624 41,000  Level Miami Center
Sat 10:14:47 AM 22.3781 -69.6311 137° Southeast 542 624 41,000  Level Miami Center
Sat 10:15:47 AM 22.2664 -69.5208 138° Southeast 542 624 41,000  Level Miami Center
Sat 10:16:47 AM 22.1547 -69.4106 138° Southeast 542 624 41,000  Level Miami Center
Sat 10:17:47 AM 22.0406 -69.2964 137° Southeast 542 624 41,000  Level Miami Center
Sat 10:18:47 AM 21.9267 -69.1844 138° Southeast 542 624 41,000  Level Miami Center
Sat 10:19:47 AM 21.8150 -69.0772 138° Southeast 542 624 41,000  Level Miami Center
Sat 10:20:47 AM 21.7008 -68.9656 138° Southeast 542 624 41,000  Level Miami Center
Sat 10:21:47 AM 21.5825 -68.8544 139° Southeast 542 624 41,000  Level Miami Center
Sat 10:22:47 AM 21.4683 -68.7433 138° Southeast 552 635 41,000  Level Miami Center
Sat 10:23:47 AM 21.3542 -68.6325 138° Southeast 552 635 41,000  Level Miami Center
Sat 10:24:47 AM 21.2419 -68.5217 137° Southeast 552 635 41,000  Level Miami Center
Sat 10:25:47 AM 21.1339 -68.4106 136° Southeast 546 628 41,000  Level Miami Center
Sat 10:26:47 AM 21.0175 -68.3006 139° Southeast 546 628 41,000  Level Miami Center
Sat 10:27:47 AM 20.9031 -68.1903 138° Southeast 546 628 41,000  Level Miami Center
Sat 10:28:47 AM 20.7883 -68.0758 137° Southeast 546 628 41,000  Level Miami Center
Sat 10:29:47 AM 20.7056 -67.9375 123° Southeast 551 634 41,000  Level Miami Center
Sat 10:30:47 AM 20.6389 -67.8267 123° Southeast 556 640 41,000  Level Miami Center
Sat 10:31:47 AM 20.5458 -67.6961 127° Southeast 556 640 41,000  Level Miami Center
Sat 10:32:35 AM 20.4500 -67.5667 128° Southeast 560 644 41,000  Level San Juan Center
Sat 10:33:36 AM 20.3500 -67.4333 129° Southeast 560 644 41,000  Level San Juan Center
Sat 10:34:36 AM 20.2500 -67.3167 132° Southeast 560 644 41,000  Level San Juan Center
Sat 10:35:36 AM 20.1667 -67.1833 124° Southeast 560 644 41,000  Level San Juan Center
Sat 10:36:36 AM 20.0667 -67.0500 129° Southeast 560 644 41,000  Level San Juan Center
Sat 10:37:36 AM 19.9667 -66.9167 129° Southeast 560 644 41,000  Level San Juan Center
Sat 10:38:36 AM 19.8667 -66.7833 129° Southeast 570 656 41,000  Level San Juan Center
Sat 10:39:37 AM 19.7833 -66.6500 124° Southeast 560 644 41,000  Level San Juan Center
Sat 10:40:36 AM 19.6833 -66.5333 132° Southeast 560 644 41,000  Level San Juan Center
Sat 10:41:37 AM 19.5833 -66.4000 129° Southeast 560 644 41,000  Level San Juan Center
Sat 10:42:36 AM 19.4833 -66.2667 128° Southeast 570 656 41,000  Level San Juan Center
Sat 10:43:37 AM 19.3833 -66.1333 128° Southeast 560 644 41,000  Level San Juan Center
Sat 10:44:37 AM 19.2833 -66.0000 128° Southeast 560 644 41,000  Level San Juan Center
Sat 10:45:37 AM 19.2000 -65.8833 127° Southeast 560 644 41,000  Level San Juan Center
Sat 10:46:37 AM 19.0833 -65.7333 129° Southeast 570 656 41,000  Level San Juan Center
Sat 10:47:38 AM 18.9833 -65.6000 128° Southeast 560 644 41,000  Level San Juan Center
Sat 10:48:37 AM 18.8833 -65.4667 128° Southeast 560 644 41,000  Level San Juan Center
Sat 10:49:38 AM 18.7833 -65.3333 128° Southeast 570 656 41,000  Level San Juan Center
Sat 10:50:38 AM 18.7000 -65.2167 127° Southeast 560 644 41,000 -100 Level San Juan Center
Sat 10:51:38 AM 18.6000 -65.0833 128° Southeast 570 656 40,800 -1,050 Descending San Juan Center
Sat 10:52:38 AM 18.5000 -64.9500 128° Southeast 560 644 38,900 -1,950 Descending San Juan Center
Sat 10:53:38 AM 18.4000 -64.8167 128° Southeast 580 667 36,900 -2,000 Descending San Juan Center
Sat 10:54:38 AM 18.3000 -64.7000 132° Southeast 560 644 34,900 -2,033 Descending San Juan Center
Sat 10:55:39 AM 18.2000 -64.5667 128° Southeast 550 633 32,800 -2,050 Descending San Juan Center
Sat 10:56:38 AM 18.1000 -64.4333 128° Southeast 550 633 30,800 -2,050 Descending San Juan Center
Sat 10:57:39 AM 18.0000 -64.3167 132° Southeast 550 633 28,700 -1,983 Descending San Juan Center
Sat 10:58:39 AM 17.9167 -64.2000 127° Southeast 530 610 26,800 -1,950 Descending San Juan Center
Sat 10:59:39 AM 17.8167 -64.0833 132° Southeast 510 587 24,800 -1,900 Descending San Juan Center
Sat 11:00:39 AM 17.7333 -63.9667 127° Southeast 480 552 23,000 -900 Descending San Juan Center
Sat 11:01:39 AM 17.6500 -63.8667 131° Southeast 480 552 23,000  Level San Juan Center
Sat 11:02:39 AM 17.5667 -63.7500 127° Southeast 480 552 23,000  Level San Juan Center
Sat 11:03:39 AM 17.4833 -63.6500 131° Southeast 470 541 23,000 -750 Level San Juan Center
Sat 11:04:39 AM 17.4667 -63.5167 97° East 440 506 21,500 -2,331 Descending San Juan Center
Sat 11:05:40 AM 17.4333 -63.4000 107° East 440 506 18,300 -3,223 Descending San Juan Center
Sat 11:06:40 AM 17.4000 -63.2833 107° East 420 483 15,000 -3,400 Descending San Juan Center
Sat 11:07:40 AM 17.3833 -63.1667 98° East 390 449 11,500 -3,050 Descending San Juan Center
Sat 11:08:40 AM 17.3667 -63.0833 102° East 350 403 8,900 -2,750 Descending San Juan Center
Sat 11:09:40 AM 17.3500 -63.0000 102° East 280 322 6,000 -2,900 Descending San Juan Center
Sat 11:11:00 AM 17.3023 -62.8115 102° East  Level FlightAware Approximate
Sat 11:18:00 AM 17.3112 -62.7187 North  Level Estimated
Sat 11:19:00 AM 17.3112 -62.7187 North  Level Estimated
Sat 11:20:00 AM 17.3112 -62.7187 North  Level Estimated
Sat 11:21:00 AM 17.3112 -62.7187 North  Level Estimated
Sat 11:22:00 AM 17.3112 -62.7187 North  Level Estimated
Sat 11:23:00 AM 17.3112 -62.7187 North  Level Estimated
Sat 11:24:00 AM 17.3112 -62.7187 North  Level Estimated
Sat 11:25:00 AM 17.3112 -62.7187 North  Level Estimated
Sat 11:26:00 AM 17.3112 -62.7187 North  Level Estimated
Sat 11:27:00 AM 17.3112 -62.7187 North  Level Estimated
Sat 11:28:00 AM 17.3112 -62.7187 North  Level Estimated
Sat 11:29:00 AM 17.3112 -62.7187 North  Level Estimated
Sat 11:30:00 AM 17.3112 -62.7187 North  Level Estimated
Sat 11:31:00 AM 17.3112 -62.7187 North  Level Estimated
Sat 11:32:00 AM 17.3112 -62.7187 North  Level Estimated
Sat 11:33:00 AM 17.3112 -62.7187 North  Level Estimated

Login

Don't have an account? Register now (free) for customized features, flight alerts, and more!